createdAt,value
2019-01-20T00:00:34.755Z,15.80
2019-01-20T00:05:39.160Z,16.63
2019-01-20T00:10:43.439Z,16.43
2019-01-20T00:15:47.816Z,17.73
2019-01-20T00:20:53.183Z,18.30
2019-01-20T00:25:57.447Z,16.53
2019-01-20T00:31:01.625Z,18.03
2019-01-20T00:36:05.986Z,18.17
2019-01-20T00:41:10.182Z,18.17
2019-01-20T00:46:14.731Z,17.87
2019-01-20T00:51:19.325Z,17.17
2019-01-20T00:56:23.491Z,18.20
2019-01-20T01:01:27.691Z,18.23
2019-01-20T01:06:31.990Z,17.67
2019-01-20T01:11:36.184Z,18.70
2019-01-20T01:16:40.384Z,16.73
2019-01-20T01:21:44.596Z,18.90
2019-01-20T01:26:48.804Z,18.37
2019-01-20T01:31:52.978Z,18.13
2019-01-20T01:36:57.190Z,19.23
2019-01-20T01:42:01.386Z,17.63
2019-01-20T01:47:05.561Z,18.37
2019-01-20T01:52:09.767Z,18.37
2019-01-20T01:57:13.962Z,16.97
2019-01-20T02:02:18.227Z,17.67
2019-01-20T02:07:22.438Z,17.27
2019-01-20T02:12:26.690Z,18.70
2019-01-20T02:17:30.956Z,17.67
2019-01-20T02:22:35.380Z,18.00
2019-01-20T02:27:39.651Z,17.50
2019-01-20T02:32:43.923Z,18.90
2019-01-20T02:37:48.210Z,17.30
2019-01-20T02:42:52.400Z,18.07
2019-01-20T02:47:56.607Z,17.17
2019-01-20T02:53:00.813Z,18.47
2019-01-20T02:58:05.003Z,18.33
2019-01-20T03:03:09.193Z,16.70
2019-01-20T03:08:13.383Z,16.67
2019-01-20T03:13:17.646Z,17.43
2019-01-20T03:18:21.822Z,17.97
2019-01-20T03:23:26.006Z,17.57
2019-01-20T03:28:30.198Z,18.03
2019-01-20T03:33:34.382Z,17.47
2019-01-20T03:38:38.563Z,17.97
2019-01-20T03:43:42.765Z,18.87
2019-01-20T03:48:47.015Z,17.53
2019-01-20T03:53:51.225Z,18.17
2019-01-20T03:58:55.684Z,18.13
2019-01-20T04:03:59.867Z,18.07
2019-01-20T04:09:07.234Z,18.13
2019-01-20T04:14:11.443Z,18.87
2019-01-20T04:19:15.667Z,17.00
2019-01-20T04:24:19.855Z,17.00
2019-01-20T04:29:24.042Z,16.77
2019-01-20T04:34:28.217Z,16.63
2019-01-20T04:39:32.387Z,17.27
2019-01-20T04:44:36.643Z,17.77
2019-01-20T04:49:40.832Z,16.87
2019-01-20T04:54:45.204Z,16.93
2019-01-20T04:59:49.588Z,17.73
2019-01-20T05:04:53.762Z,18.57
2019-01-20T05:09:57.980Z,17.80
2019-01-20T05:15:02.172Z,18.43
2019-01-20T05:20:08.227Z,19.03
2019-01-20T05:25:12.446Z,18.07
2019-01-20T05:30:20.237Z,17.47
2019-01-20T05:35:24.433Z,17.63
2019-01-20T05:40:28.657Z,18.90
2019-01-20T05:45:32.987Z,19.57
2019-01-20T05:50:37.279Z,17.63
2019-01-20T05:55:41.563Z,17.33
2019-01-20T06:00:45.831Z,17.47
2019-01-20T06:05:50.119Z,18.27
2019-01-20T06:10:54.319Z,18.23
2019-01-20T06:15:58.507Z,18.23
2019-01-20T06:21:02.687Z,17.73
2019-01-20T06:26:06.931Z,18.93
2019-01-20T06:31:11.123Z,18.50
2019-01-20T06:36:15.332Z,17.77
2019-01-20T06:41:19.503Z,17.87
2019-01-20T06:46:23.786Z,18.23
2019-01-20T06:51:28.061Z,17.13
2019-01-20T06:56:32.230Z,17.70
2019-01-20T07:01:36.523Z,17.03
2019-01-20T07:06:40.711Z,17.03
2019-01-20T07:11:44.947Z,16.70
2019-01-20T07:16:49.144Z,17.67
2019-01-20T07:21:53.338Z,17.30
2019-01-20T07:26:57.507Z,18.33
2019-01-20T07:32:01.728Z,18.53
2019-01-20T07:37:06.041Z,17.73
2019-01-20T07:42:10.221Z,17.10
2019-01-20T07:47:14.421Z,17.77
2019-01-20T07:52:18.671Z,16.37
2019-01-20T07:57:22.902Z,17.93
2019-01-20T08:02:27.399Z,18.40
2019-01-20T08:07:31.608Z,19.07
2019-01-20T08:12:35.803Z,18.50
2019-01-20T08:17:39.996Z,16.80
2019-01-20T08:22:44.192Z,20.47
2019-01-20T08:27:48.495Z,21.00
2019-01-20T08:32:52.723Z,23.87
2019-01-20T08:37:57.005Z,22.87
2019-01-20T08:43:01.576Z,24.17
2019-01-20T08:48:11.407Z,24.93
2019-01-20T08:53:15.687Z,23.83
2019-01-20T08:58:20.575Z,23.77
2019-01-20T09:03:24.776Z,24.80
2019-01-20T09:08:30.534Z,24.93
2019-01-20T09:13:39.588Z,26.73
2019-01-20T09:18:41.254Z,25.93
2019-01-20T09:23:45.467Z,28.03
2019-01-20T09:28:49.643Z,26.83
2019-01-20T09:33:53.847Z,27.63
2019-01-20T09:38:58.051Z,27.83
2019-01-20T09:44:02.250Z,27.90
2019-01-20T09:49:06.516Z,26.47
2019-01-20T09:54:10.749Z,27.83
2019-01-20T09:59:14.945Z,27.13
2019-01-20T10:04:19.203Z,27.23
2019-01-20T10:09:23.588Z,26.10
2019-01-20T10:14:27.812Z,28.23
2019-01-20T10:19:32.016Z,28.70
2019-01-20T10:24:36.216Z,26.13
2019-01-20T10:29:40.436Z,27.50
2019-01-20T10:34:45.073Z,26.83
2019-01-20T10:39:49.279Z,27.93
2019-01-20T10:44:53.491Z,26.87
2019-01-20T10:49:57.865Z,27.40
2019-01-20T10:55:02.407Z,27.13
2019-01-20T11:00:12.524Z,27.33
2019-01-20T11:05:16.983Z,26.20
2019-01-20T11:10:21.507Z,27.17
2019-01-20T11:15:25.908Z,28.60
2019-01-20T11:20:30.224Z,27.57
2019-01-20T11:25:43.004Z,26.53
2019-01-20T11:30:47.312Z,27.93
2019-01-20T11:35:51.590Z,23.73
2019-01-20T11:40:55.859Z,25.93
2019-01-20T11:46:00.087Z,25.23
2019-01-20T11:51:04.357Z,25.33
2019-01-20T11:56:08.575Z,26.80
2019-01-20T12:01:12.787Z,26.03
2019-01-20T12:06:17.094Z,26.97
2019-01-20T12:11:21.302Z,28.07
2019-01-20T12:16:25.527Z,26.13
2019-01-20T12:21:29.709Z,27.40
2019-01-20T12:26:33.936Z,24.93
2019-01-20T12:31:38.162Z,27.77
2019-01-20T12:36:42.357Z,27.40
2019-01-20T12:41:46.636Z,27.30
2019-01-20T12:46:50.909Z,26.40
2019-01-20T12:51:55.211Z,23.90
2019-01-20T12:56:59.510Z,24.60
2019-01-20T13:02:03.793Z,25.73
2019-01-20T13:07:08.059Z,26.00
2019-01-20T13:12:12.357Z,25.23
2019-01-20T13:17:16.554Z,25.93
2019-01-20T13:22:20.800Z,25.20
2019-01-20T13:27:25.024Z,23.93
2019-01-20T13:32:29.239Z,25.77
2019-01-20T13:37:33.453Z,26.03
2019-01-20T13:42:37.672Z,25.77
2019-01-20T13:47:48.512Z,27.10
2019-01-20T13:52:47.983Z,28.60
2019-01-20T13:57:52.276Z,28.30
2019-01-20T14:02:56.471Z,28.23
2019-01-20T14:08:00.889Z,30.30
2019-01-20T14:13:05.416Z,27.00
2019-01-20T14:18:09.768Z,28.43
2019-01-20T14:23:14.049Z,28.03
2019-01-20T14:28:18.243Z,27.90
2019-01-20T14:33:23.381Z,27.63
2019-01-20T14:38:27.712Z,28.17
2019-01-20T14:43:32.023Z,27.13
2019-01-20T14:48:36.325Z,28.13
2019-01-20T14:53:40.724Z,28.37
2019-01-20T14:58:44.948Z,28.87
2019-01-20T15:03:49.170Z,27.80
2019-01-20T15:08:53.411Z,29.50
2019-01-20T15:13:57.712Z,29.50
2019-01-20T15:19:02.048Z,28.27
2019-01-20T15:24:06.333Z,29.80
2019-01-20T15:29:10.527Z,28.53
2019-01-20T15:34:14.790Z,29.00
2019-01-20T15:39:19.160Z,30.73
2019-01-20T15:44:23.381Z,30.13
2019-01-20T15:49:30.927Z,29.63
2019-01-20T15:54:35.424Z,27.63
2019-01-20T15:59:39.711Z,29.90
2019-01-20T16:04:44.084Z,32.33
2019-01-20T16:09:48.304Z,30.50
2019-01-20T16:14:52.594Z,30.10
2019-01-20T16:19:56.906Z,32.13
2019-01-20T16:25:01.205Z,34.57
2019-01-20T16:30:11.706Z,32.93
2019-01-20T16:35:16.151Z,34.47
2019-01-20T16:40:21.954Z,31.93
2019-01-20T16:45:33.023Z,33.20
2019-01-20T16:50:35.395Z,33.50
2019-01-20T16:55:39.611Z,37.03
2019-01-20T17:00:46.917Z,36.77
2019-01-20T17:05:51.145Z,37.37
2019-01-20T17:10:55.464Z,37.20
2019-01-20T17:15:59.925Z,34.17
2019-01-20T17:21:04.277Z,33.03
2019-01-20T17:26:08.468Z,33.13
2019-01-20T17:31:12.845Z,34.17
2019-01-20T17:48:25.516Z,34.67
2019-01-20T17:53:29.880Z,33.70
2019-01-20T17:58:34.115Z,35.07
2019-01-20T18:03:38.335Z,33.37
2019-01-20T18:08:42.684Z,32.87
2019-01-20T18:13:47.039Z,34.07
2019-01-20T18:18:51.342Z,33.60
2019-01-20T18:23:56.694Z,36.30
2019-01-20T18:29:01.172Z,37.27
2019-01-20T18:34:05.485Z,36.87
2019-01-20T18:39:10.400Z,36.47
2019-01-20T18:44:14.725Z,36.17
2019-01-20T18:49:19.062Z,36.07
2019-01-20T18:54:23.397Z,34.53
2019-01-20T18:59:27.822Z,34.70
2019-01-20T19:04:32.097Z,35.80
2019-01-20T19:09:36.472Z,36.80
2019-01-20T19:14:40.696Z,38.30
2019-01-20T19:19:44.935Z,36.27
2019-01-20T19:24:49.290Z,36.33
2019-01-20T19:29:53.727Z,38.67
2019-01-20T19:34:58.016Z,37.93
2019-01-20T19:40:02.480Z,38.67
2019-01-20T19:45:08.760Z,37.57
2019-01-20T19:50:13.872Z,38.37
2019-01-20T19:55:27.361Z,38.57
2019-01-20T20:00:32.533Z,36.50
2019-01-20T20:05:36.855Z,37.47
2019-01-20T20:10:41.096Z,37.13
2019-01-20T20:15:45.499Z,34.03
2019-01-20T20:20:50.291Z,34.13
2019-01-20T20:25:54.819Z,39.80
2019-01-20T20:30:59.069Z,40.53
2019-01-20T20:36:03.353Z,38.17
2019-01-20T20:41:07.765Z,39.83
2019-01-20T20:46:11.983Z,40.47
2019-01-20T20:51:16.233Z,40.80
2019-01-20T20:56:20.525Z,45.40
2019-01-20T21:01:24.849Z,41.37
2019-01-20T21:06:29.232Z,42.90
2019-01-20T21:11:33.940Z,41.57
2019-01-20T21:16:38.226Z,41.07
2019-01-20T21:21:42.456Z,41.50
2019-01-20T21:26:46.720Z,40.90
2019-01-20T21:31:50.943Z,41.23
2019-01-20T21:36:55.148Z,40.07
2019-01-20T21:41:59.378Z,39.50
2019-01-20T21:47:03.693Z,40.00
2019-01-20T21:52:08.008Z,37.00
2019-01-20T21:57:12.263Z,37.30
2019-01-20T22:02:16.457Z,39.27
2019-01-20T22:07:20.737Z,34.33
2019-01-20T22:12:24.972Z,32.53
2019-01-20T22:17:29.218Z,33.90
2019-01-20T22:22:33.510Z,35.87
2019-01-20T22:27:37.759Z,39.20
2019-01-20T22:32:41.984Z,40.73
2019-01-20T22:37:46.287Z,38.07
2019-01-20T22:42:50.498Z,39.37
2019-01-20T22:47:54.703Z,38.77
2019-01-20T22:52:58.967Z,38.20
2019-01-20T22:58:03.347Z,35.73
2019-01-20T23:03:07.917Z,39.27
2019-01-20T23:08:12.676Z,39.70
2019-01-20T23:13:17.039Z,37.23
2019-01-20T23:18:21.707Z,37.37
2019-01-20T23:23:25.884Z,36.13
2019-01-20T23:28:30.084Z,35.83
2019-01-20T23:33:34.295Z,34.07
2019-01-20T23:38:38.570Z,34.93
2019-01-20T23:43:42.837Z,36.37
2019-01-20T23:48:47.037Z,35.23
2019-01-20T23:53:51.356Z,35.70
2019-01-20T23:58:55.642Z,35.33
